Observations for CULDROSE NAVY, United Kingdom (EGDR)

EGDR 211650Z AUTO 25017G28KT 0600 // BKN001/// 11/11 Q1011  
EGDR 211550Z AUTO 25017KT 0800 // OVC001/// 11/11 Q1011 
EGDR 211450Z AUTO 25018G31KT 3500 // OVC002/// 11/11 Q1011  
EGDR 211350Z AUTO 25017KT 4500 // OVC002/// 11/11 Q1012 
EGDR 211250Z AUTO 25017KT 5000 // OVC002/// 11/11 Q1012 
EGDR 211150Z AUTO 25017G28KT 4900 // OVC002/// 11/11 Q1013  
EGDR 211050Z AUTO 26023G33KT 9999 // OVC002/// 11/11 Q1013  
EGDR 210950Z AUTO 26018G28KT 2600 // OVC002/// 11/11 Q1013  
EGDR 210850Z AUTO 26024KT 7000 // OVC002/// 11/11 Q1013 
EGDR 210750Z AUTO 26020G30KT 3900 // OVC002/// 11/10 Q1012  
EGDR 210650Z AUTO 26018G29KT 2900 // OVC001/// 11/10 Q1012  
EGDR 210550Z AUTO 26019KT 1400 // OVC002/// 11/10 Q1012 
EGDR 210450Z AUTO 26016KT 1700 // OVC002/// 11/10 Q1013 
EGDR 210350Z AUTO 22010KT 0300 // BKN002/// 09/08 Q1013 
EGDR 210250Z AUTO 23005KT 0300 // BKN002/// SCT012/// 09/08 Q1013   
EGDR 210150Z AUTO 27008KT 2000 // BKN008/// 09/08 Q1014 
EGDR 210050Z AUTO 25006KT 6000 // BKN021/// 09/08 Q1013 
EGDR 202350Z AUTO 27010KT 6000 // BKN033/// SCT050/// 09/08 Q1013   
EGDR 202250Z AUTO 29013KT 9999 // SCT041/// BKN050/// 09/07 Q1012   
EGDR 202150Z AUTO 30016KT 9999 // SCT070/// 09/07 Q1011 
EGDR 202050Z AUTO 30021KT 9999 // FEW170/// 09/08 Q1010 
EGDR 201950Z AUTO 29021KT 9999 // NCD 09/08 Q1009   
EGDR 201850Z AUTO 30020KT 9000 // SCT023/// SCT036/// 09/08 Q1009   
EGDR 201750Z AUTO 29022KT 9999 // SCT038/// 09/08 Q1007